Alvin, South Carolina
Current Conditions -  °F | °C
As of 3:55 PM on Sunday 21 Dec 2014 (Local Time) from KMKS Reporting Station
Light Rain Light Rain  
Wind Chill: 45°   Ceiling: 1900
Heat Index: 48°   Visibility: 10mi
Dew Point: 43°   Wind: 8mph
Humidity: 82%   Direction: 60°ENE
Pressure: 30.16"   Gusts: NA
Location:  33.4606°N, 80.009°W
Report Text: KMKS 212055Z AUTO 06007KT 10SM -RA BKN019 OVC031 09/06 A3016 RMK AO2 P0003
Loading
Personal Weather Stations






























Interactive Weather Map New forecast layout! Learn more

10-Day Weather Forecast

Advertisements
Track Severe Weather on mobile